createdAt,value
2023-08-12T00:00:13.119Z,19.40
2023-08-12T00:03:15.930Z,23.48
2023-08-12T00:06:17.847Z,20.40
2023-08-12T00:09:19.721Z,20.00
2023-08-12T00:12:21.602Z,21.42
2023-08-12T00:15:23.729Z,18.77
2023-08-12T00:18:25.889Z,25.95
2023-08-12T00:21:27.782Z,19.88
2023-08-12T00:24:29.594Z,19.48
2023-08-12T00:27:31.574Z,18.98
2023-08-12T00:30:33.855Z,18.10
2023-08-12T00:33:35.841Z,20.02
2023-08-12T00:36:38.308Z,18.58
2023-08-12T00:39:40.192Z,19.70
2023-08-12T00:42:42.105Z,20.92
2023-08-12T00:45:45.102Z,20.58
2023-08-12T00:48:47.068Z,20.85
2023-08-12T00:51:50.281Z,19.73
2023-08-12T00:54:52.146Z,20.13
2023-08-12T00:57:54.526Z,23.27
2023-08-12T01:00:56.803Z,19.20
2023-08-12T01:03:59.122Z,20.80
2023-08-12T01:07:01.372Z,23.15
2023-08-12T01:10:04.759Z,20.30
2023-08-12T01:13:30.684Z,18.95
2023-08-12T01:16:37.390Z,17.13
2023-08-12T01:19:40.839Z,13.75
2023-08-12T01:22:45.068Z,17.13
2023-08-12T01:25:46.950Z,17.00
2023-08-12T01:28:49.031Z,16.08
2023-08-12T01:31:59.633Z,19.67
2023-08-12T01:35:08.327Z,17.48
2023-08-12T01:38:11.361Z,22.63
2023-08-12T01:41:15.334Z,18.08
2023-08-12T01:44:17.825Z,17.48
2023-08-12T01:47:19.658Z,22.87
2023-08-12T01:50:22.812Z,18.48
2023-08-12T01:53:24.653Z,16.35
2023-08-12T01:56:26.639Z,21.83
2023-08-12T01:59:29.341Z,19.17
2023-08-12T02:02:34.321Z,18.70
2023-08-12T02:05:38.258Z,22.40
2023-08-12T02:08:40.280Z,21.55
2023-08-12T02:11:42.501Z,20.83
2023-08-12T02:14:44.641Z,20.42
2023-08-12T02:17:46.664Z,19.02
2023-08-12T02:20:49.571Z,17.98
2023-08-12T02:23:51.617Z,16.58
2023-08-12T02:26:53.844Z,18.50
2023-08-12T02:29:55.721Z,19.40
2023-08-12T02:32:57.636Z,20.85
2023-08-12T02:35:59.737Z,18.88
2023-08-12T02:39:02.194Z,21.98
2023-08-12T02:42:04.146Z,21.43
2023-08-12T02:45:06.726Z,19.30
2023-08-12T02:48:09.343Z,23.15
2023-08-12T02:51:11.321Z,22.50
2023-08-12T02:54:13.210Z,22.27
2023-08-12T02:57:15.150Z,21.25
2023-08-12T03:00:17.363Z,22.73
2023-08-12T03:03:19.570Z,23.80
2023-08-12T03:06:22.027Z,25.02
2023-08-12T03:09:23.962Z,23.07
2023-08-12T03:12:25.775Z,21.92
2023-08-12T03:15:27.787Z,22.20
2023-08-12T03:18:29.792Z,28.35
2023-08-12T03:21:31.631Z,25.80
2023-08-12T03:24:33.496Z,28.25
2023-08-12T03:27:38.466Z,23.67
2023-08-12T03:30:40.290Z,24.27
2023-08-12T03:33:42.182Z,24.77
2023-08-12T03:36:44.180Z,23.10
2023-08-12T03:39:46.222Z,23.77
2023-08-12T03:42:48.306Z,24.55
2023-08-12T03:45:50.210Z,20.42
2023-08-12T03:48:52.110Z,22.30
2023-08-12T03:51:54.213Z,22.65
2023-08-12T03:54:56.008Z,18.00
2023-08-12T03:57:57.895Z,19.95
2023-08-12T04:01:00.921Z,23.88
2023-08-12T04:04:15.171Z,19.50
2023-08-12T04:07:17.292Z,19.77
2023-08-12T04:10:19.418Z,19.65
2023-08-12T04:13:21.334Z,18.98
2023-08-12T04:16:23.375Z,16.13
2023-08-12T04:19:25.219Z,16.15
2023-08-12T04:22:27.429Z,17.38
2023-08-12T04:25:29.266Z,15.10
2023-08-12T04:28:31.137Z,18.27
2023-08-12T04:31:32.996Z,11.20
2023-08-12T04:34:35.413Z,13.60
2023-08-12T04:37:37.804Z,12.53
2023-08-12T04:40:41.360Z,10.07
2023-08-12T04:43:43.447Z,8.93
2023-08-12T04:46:45.254Z,8.38
2023-08-12T04:49:47.081Z,7.15
2023-08-12T04:52:48.911Z,9.77
2023-08-12T04:55:55.292Z,8.27
2023-08-12T04:58:58.133Z,7.70
2023-08-12T05:02:17.965Z,5.43
2023-08-12T05:05:19.988Z,4.97
2023-08-12T05:08:22.012Z,8.15
2023-08-12T05:11:23.870Z,3.72
2023-08-12T05:14:25.642Z,3.88
2023-08-12T05:17:27.462Z,5.88
2023-08-12T05:20:29.635Z,4.07
2023-08-12T05:23:31.501Z,3.92
2023-08-12T05:26:34.968Z,5.03
2023-08-12T05:29:37.000Z,4.55
2023-08-12T05:32:38.836Z,3.95
2023-08-12T05:35:40.663Z,4.30
2023-08-12T05:38:42.499Z,3.90
2023-08-12T05:41:44.390Z,6.45
2023-08-12T05:44:46.527Z,3.95
2023-08-12T05:47:48.484Z,3.25
2023-08-12T05:50:50.263Z,6.25
2023-08-12T05:53:52.224Z,4.38
2023-08-12T05:56:55.218Z,4.45
2023-08-12T05:59:57.160Z,2.97
2023-08-12T06:02:59.114Z,3.78
2023-08-12T06:06:04.690Z,3.30
2023-08-12T06:09:06.722Z,5.75
2023-08-12T06:12:08.807Z,8.18
2023-08-12T06:15:11.066Z,2.40
2023-08-12T06:18:12.945Z,2.80
2023-08-12T06:21:14.984Z,3.00
2023-08-12T06:24:16.978Z,2.72
2023-08-12T06:27:20.766Z,6.28
2023-08-12T06:30:22.678Z,2.50
2023-08-12T06:33:24.760Z,2.78
2023-08-12T06:36:26.565Z,2.67
2023-08-12T06:39:28.653Z,1.48
2023-08-12T06:42:31.049Z,1.50
2023-08-12T06:45:33.379Z,1.77
2023-08-12T06:48:35.263Z,1.63
2023-08-12T06:51:37.207Z,2.00
2023-08-12T06:54:39.143Z,2.72
2023-08-12T06:57:41.524Z,1.73
2023-08-12T07:00:43.604Z,2.60
2023-08-12T07:03:45.384Z,2.45
2023-08-12T07:06:47.449Z,2.00
2023-08-12T07:09:49.472Z,3.20
2023-08-12T07:12:51.348Z,2.78
2023-08-12T07:15:53.502Z,3.47
2023-08-12T07:18:55.637Z,3.08
2023-08-12T07:21:57.602Z,3.90
2023-08-12T07:25:01.257Z,2.35
2023-08-12T07:28:03.208Z,3.88
2023-08-12T07:31:05.202Z,3.67
2023-08-12T07:34:07.349Z,4.20
2023-08-12T07:37:09.445Z,3.35
2023-08-12T07:40:11.750Z,3.63
2023-08-12T07:43:13.809Z,3.85
2023-08-12T07:46:15.784Z,3.45
2023-08-12T07:49:17.973Z,4.72
2023-08-12T07:52:19.838Z,4.28
2023-08-12T07:55:22.026Z,3.65
2023-08-12T07:58:25.228Z,3.83
2023-08-12T08:01:27.180Z,5.13
2023-08-12T08:04:29.181Z,3.50
2023-08-12T08:07:33.806Z,2.70
2023-08-12T08:10:35.652Z,4.72
2023-08-12T08:13:37.921Z,7.10
2023-08-12T08:16:41.585Z,3.05
2023-08-12T08:19:44.069Z,3.92
2023-08-12T08:22:48.526Z,3.75
2023-08-12T08:26:09.217Z,3.05
2023-08-12T08:29:14.636Z,2.83
2023-08-12T08:32:31.400Z,2.60
2023-08-12T08:35:33.402Z,2.20
2023-08-12T08:38:35.364Z,5.50
2023-08-12T08:41:41.246Z,4.80
2023-08-12T08:44:43.702Z,2.40
2023-08-12T08:47:49.450Z,2.50
2023-08-12T08:50:53.136Z,1.48
2023-08-12T08:53:58.502Z,2.97
2023-08-12T08:57:09.922Z,1.52
2023-08-12T09:00:18.367Z,1.00
2023-08-12T09:03:22.748Z,1.50
2023-08-12T09:06:26.951Z,5.32
2023-08-12T09:09:29.113Z,0.63
2023-08-12T09:12:32.728Z,0.85
2023-08-12T09:15:35.284Z,2.70
2023-08-12T09:18:41.203Z,0.67
2023-08-12T09:21:44.919Z,1.23
2023-08-12T09:24:46.878Z,0.63
2023-08-12T09:28:00.825Z,0.55
2023-08-12T09:31:08.780Z,0.82
2023-08-12T09:34:13.619Z,1.40
2023-08-12T09:37:17.436Z,0.60
2023-08-12T09:40:19.725Z,0.52
2023-08-12T09:43:25.594Z,0.45
2023-08-12T09:46:28.892Z,2.30
2023-08-12T09:49:31.541Z,0.65
2023-08-12T09:56:08.979Z,0.68
2023-08-12T09:59:12.738Z,0.70
2023-08-12T10:02:19.889Z,1.50
2023-08-12T10:05:33.596Z,1.33
2023-08-12T10:11:38.984Z,1.20
2023-08-12T10:14:41.364Z,0.43
2023-08-12T10:17:47.251Z,0.73
2023-08-12T10:20:59.024Z,0.95
2023-08-12T10:24:17.378Z,0.50
2023-08-12T10:27:26.845Z,1.17
2023-08-12T10:30:36.315Z,1.10
2023-08-12T10:33:39.863Z,2.25
2023-08-12T10:37:01.448Z,2.15
2023-08-12T10:40:34.772Z,2.08
2023-08-12T10:44:16.951Z,1.75
2023-08-12T10:47:19.112Z,2.47
2023-08-12T10:50:27.042Z,1.52
2023-08-12T10:53:40.985Z,6.45
2023-08-12T10:57:05.309Z,1.67
2023-08-12T11:00:12.213Z,2.08
2023-08-12T11:03:14.747Z,3.38
2023-08-12T11:06:17.758Z,3.33
2023-08-12T11:09:20.097Z,1.90
2023-08-12T11:12:44.152Z,1.60
2023-08-12T11:15:51.230Z,1.90
2023-08-12T11:19:00.339Z,1.63
2023-08-12T11:22:15.505Z,4.10
2023-08-12T11:25:20.477Z,2.75
2023-08-12T11:28:22.726Z,2.60
2023-08-12T11:31:25.313Z,3.67
2023-08-12T11:34:27.456Z,2.38
2023-08-12T11:37:41.447Z,2.55
2023-08-12T11:40:51.557Z,2.88
2023-08-12T11:43:53.593Z,2.97
2023-08-12T11:46:56.175Z,4.57
2023-08-12T11:50:05.153Z,1.58
2023-08-12T11:53:16.057Z,2.35
2023-08-12T11:59:34.356Z,1.20
2023-08-12T12:03:01.187Z,4.63
2023-08-12T12:06:03.809Z,3.42
2023-08-12T12:09:16.342Z,1.92
2023-08-12T12:12:18.588Z,6.35
2023-08-12T12:15:20.440Z,2.85
2023-08-12T12:18:22.296Z,1.52
2023-08-12T12:21:24.348Z,0.90
2023-08-12T12:24:31.307Z,1.73
2023-08-12T12:27:34.374Z,1.38
2023-08-12T12:30:38.028Z,2.75
2023-08-12T12:33:45.757Z,1.98
2023-08-12T12:36:55.521Z,3.60
2023-08-12T12:39:57.554Z,1.08
2023-08-12T12:43:00.202Z,6.07
2023-08-12T12:46:02.272Z,1.83
2023-08-12T12:49:04.310Z,2.80
2023-08-12T12:52:06.450Z,2.95
2023-08-12T12:55:09.370Z,2.75
2023-08-12T12:58:12.689Z,7.75
2023-08-12T13:04:16.451Z,3.05
2023-08-12T13:07:18.485Z,2.53
2023-08-12T13:10:20.607Z,1.73
2023-08-12T13:13:22.486Z,1.30
2023-08-12T13:16:24.334Z,2.50
2023-08-12T13:19:28.194Z,4.35
2023-08-12T13:22:30.267Z,1.80
2023-08-12T13:25:36.996Z,1.60
2023-08-12T13:28:52.801Z,2.85
2023-08-12T13:32:07.040Z,2.70
2023-08-12T13:35:09.148Z,2.95
2023-08-12T13:38:11.034Z,3.00
2023-08-12T13:41:13.031Z,2.47
2023-08-12T13:44:14.900Z,2.95
2023-08-12T13:47:16.871Z,4.13
2023-08-12T13:50:19.442Z,5.22
2023-08-12T13:53:21.546Z,3.08
2023-08-12T13:56:23.837Z,5.80
2023-08-12T13:59:26.374Z,6.57
2023-08-12T14:02:29.867Z,5.30
2023-08-12T14:05:31.756Z,7.75
2023-08-12T14:11:49.514Z,3.42
2023-08-12T14:14:51.555Z,3.47
2023-08-12T14:17:53.707Z,4.72
2023-08-12T14:21:01.822Z,3.15
2023-08-12T14:24:03.919Z,4.05
2023-08-12T14:27:06.206Z,4.75
2023-08-12T14:30:08.835Z,3.35
2023-08-12T14:33:10.846Z,3.53
2023-08-12T14:36:12.981Z,3.80
2023-08-12T14:39:19.249Z,2.53
2023-08-12T14:42:21.101Z,5.13
2023-08-12T14:45:22.951Z,3.55
2023-08-12T14:48:24.790Z,2.10
2023-08-12T14:51:27.001Z,5.80
2023-08-12T14:54:28.949Z,3.58
2023-08-12T14:57:30.982Z,3.17
2023-08-12T15:00:47.138Z,4.70
2023-08-12T15:03:49.133Z,2.80
2023-08-12T15:06:51.065Z,5.68
2023-08-12T15:09:55.897Z,3.72
2023-08-12T15:12:57.868Z,1.48
2023-08-12T15:16:00.198Z,2.08
2023-08-12T15:19:03.002Z,5.33
2023-08-12T15:22:04.898Z,3.75
2023-08-12T15:25:07.292Z,3.53
2023-08-12T15:28:09.822Z,3.03
2023-08-12T15:31:15.844Z,3.50
2023-08-12T15:34:17.973Z,5.40
2023-08-12T15:37:20.107Z,3.30
2023-08-12T15:40:23.204Z,4.35
2023-08-12T15:43:25.259Z,3.05
2023-08-12T15:46:27.139Z,3.80
2023-08-12T15:49:34.107Z,3.08
2023-08-12T15:55:51.809Z,7.07
2023-08-12T15:58:53.724Z,6.38
2023-08-12T16:01:55.701Z,2.85
2023-08-12T16:04:57.738Z,4.38
2023-08-12T16:07:59.653Z,5.78
2023-08-12T16:11:01.533Z,4.32
2023-08-12T16:14:03.553Z,4.25
2023-08-12T16:17:14.934Z,5.97
2023-08-12T16:20:24.883Z,4.72
2023-08-12T16:23:27.269Z,2.53
2023-08-12T16:26:29.197Z,4.70
2023-08-12T16:33:09.455Z,3.70
2023-08-12T16:36:09.728Z,6.87
2023-08-12T16:39:17.854Z,4.18
2023-08-12T16:42:29.084Z,3.15
2023-08-12T16:48:46.644Z,4.38
2023-08-12T16:51:54.782Z,3.85
2023-08-12T16:55:05.674Z,3.95
2023-08-12T16:58:16.707Z,3.20
2023-08-12T17:01:32.254Z,7.72
2023-08-12T17:04:51.561Z,3.55
2023-08-12T17:07:53.492Z,4.07
2023-08-12T17:10:55.400Z,5.32
2023-08-12T17:13:58.273Z,3.22
2023-08-12T17:17:00.382Z,3.58
2023-08-12T17:20:02.355Z,4.75
2023-08-12T17:23:04.533Z,2.65
2023-08-12T17:26:06.816Z,5.25
2023-08-12T17:29:11.118Z,4.88
2023-08-12T17:32:13.348Z,5.50
2023-08-12T17:35:15.521Z,4.30
2023-08-12T17:38:17.380Z,5.78
2023-08-12T17:41:19.222Z,4.88
2023-08-12T17:44:21.181Z,4.13
2023-08-12T17:47:23.128Z,4.88
2023-08-12T17:50:26.028Z,4.00
2023-08-12T17:53:27.878Z,6.93
2023-08-12T17:56:29.722Z,4.00
2023-08-12T17:59:31.784Z,3.83
2023-08-12T18:02:49.222Z,2.00
2023-08-12T18:05:51.369Z,4.63
2023-08-12T18:08:54.212Z,3.22
2023-08-12T18:11:56.082Z,9.95
2023-08-12T18:15:00.562Z,4.85
2023-08-12T18:18:14.716Z,5.40
2023-08-12T18:21:16.585Z,7.72
2023-08-12T18:24:41.022Z,6.72
2023-08-12T18:27:42.970Z,3.53
2023-08-12T18:30:44.846Z,6.65
2023-08-12T18:33:46.832Z,8.32
2023-08-12T18:36:48.837Z,5.20
2023-08-12T18:39:50.763Z,6.13
2023-08-12T18:42:52.671Z,3.97
2023-08-12T18:45:54.946Z,3.22
2023-08-12T18:48:57.476Z,5.13
2023-08-12T18:51:59.415Z,3.60
2023-08-12T18:55:01.587Z,5.30
2023-08-12T18:58:03.870Z,4.60
2023-08-12T19:01:05.935Z,8.63
2023-08-12T19:04:07.767Z,6.35
2023-08-12T19:07:09.752Z,5.13
2023-08-12T19:10:11.643Z,4.18
2023-08-12T19:13:13.849Z,7.93
2023-08-12T19:16:15.851Z,5.03
2023-08-12T19:19:17.792Z,5.43
2023-08-12T19:22:20.486Z,5.72
2023-08-12T19:25:22.543Z,5.60
2023-08-12T19:28:24.458Z,5.32
2023-08-12T19:31:27.136Z,9.13
2023-08-12T19:34:30.941Z,5.32
2023-08-12T19:37:34.032Z,7.88
2023-08-12T19:40:36.016Z,8.32
2023-08-12T19:43:38.028Z,8.02
2023-08-12T19:46:40.777Z,6.53
2023-08-12T19:49:42.735Z,5.03
2023-08-12T19:52:44.699Z,6.85
2023-08-12T19:55:46.644Z,5.20
2023-08-12T19:58:48.448Z,7.43
2023-08-12T20:01:50.586Z,5.45
2023-08-12T20:04:52.844Z,4.28
2023-08-12T20:07:54.687Z,7.13
2023-08-12T20:10:56.513Z,8.38
2023-08-12T20:13:58.641Z,9.10
2023-08-12T20:17:00.845Z,6.45
2023-08-12T20:20:06.460Z,4.68
2023-08-12T20:23:08.421Z,6.97
2023-08-12T20:26:11.113Z,4.53
2023-08-12T20:29:13.425Z,8.40
2023-08-12T20:32:15.808Z,6.30
2023-08-12T20:35:18.062Z,5.50
2023-08-12T20:38:19.999Z,8.55
2023-08-12T20:41:22.628Z,7.60
2023-08-12T20:44:24.685Z,11.95
2023-08-12T20:47:26.843Z,7.78
2023-08-12T20:50:28.762Z,8.02
2023-08-12T20:53:33.486Z,7.50
2023-08-12T20:56:35.381Z,10.25
2023-08-12T20:59:37.280Z,6.45
2023-08-12T21:02:46.514Z,10.32
2023-08-12T21:05:52.226Z,7.10
2023-08-12T21:08:54.079Z,5.40
2023-08-12T21:11:56.092Z,5.60
2023-08-12T21:14:58.037Z,6.80
2023-08-12T21:18:00.787Z,6.40
2023-08-12T21:21:02.889Z,10.68
2023-08-12T21:24:05.060Z,4.90
2023-08-12T21:27:07.023Z,7.10
2023-08-12T21:30:09.406Z,9.38
2023-08-12T21:33:11.544Z,5.13
2023-08-12T21:36:13.669Z,8.00
2023-08-12T21:39:15.851Z,5.07
2023-08-12T21:42:17.776Z,9.50
2023-08-12T21:45:19.966Z,8.27
2023-08-12T21:48:22.030Z,7.38
2023-08-12T21:51:24.094Z,6.28
2023-08-12T21:54:26.043Z,6.45
2023-08-12T21:57:27.925Z,5.88
2023-08-12T22:00:30.026Z,6.35
2023-08-12T22:03:31.894Z,5.43
2023-08-12T22:06:33.860Z,5.25
2023-08-12T22:09:35.812Z,8.07
2023-08-12T22:12:37.700Z,6.55
2023-08-12T22:15:39.784Z,5.85
2023-08-12T22:18:42.944Z,7.10
2023-08-12T22:21:45.033Z,7.18
2023-08-12T22:24:47.350Z,5.05
2023-08-12T22:27:49.197Z,9.93
2023-08-12T22:30:53.381Z,4.93
2023-08-12T22:33:55.360Z,5.22
2023-08-12T22:36:57.890Z,5.30
2023-08-12T22:40:00.112Z,7.30
2023-08-12T22:43:02.031Z,6.50
2023-08-12T22:46:03.952Z,7.82
2023-08-12T22:49:05.794Z,10.63
2023-08-12T22:52:07.915Z,8.02
2023-08-12T22:55:10.160Z,8.02
2023-08-12T22:58:12.033Z,6.18
2023-08-12T23:01:14.069Z,5.45
2023-08-12T23:04:16.110Z,9.80
2023-08-12T23:07:18.230Z,8.25
2023-08-12T23:10:20.174Z,6.00
2023-08-12T23:13:23.729Z,5.68
2023-08-12T23:16:26.377Z,8.80
2023-08-12T23:19:28.234Z,5.38
2023-08-12T23:22:30.249Z,7.70
2023-08-12T23:25:32.409Z,6.45
2023-08-12T23:28:34.369Z,6.13
2023-08-12T23:31:36.379Z,6.65
2023-08-12T23:34:38.425Z,11.82
2023-08-12T23:37:41.247Z,8.55
2023-08-12T23:40:43.450Z,6.78
2023-08-12T23:43:45.514Z,8.02
2023-08-12T23:46:47.385Z,5.90
2023-08-12T23:49:50.115Z,9.38
2023-08-12T23:52:52.600Z,7.20
2023-08-12T23:55:54.666Z,10.50
2023-08-12T23:58:56.565Z,11.18
